Time;durP1;ratioP1;P1;durP2;ratioP2;P2;SDS_P1;SDS_P2;PMS_P1;PMS_P2;Temp;Humidity;BMP_temperature;BMP_pressure;BME280_temperature;BME280_humidity;BME280_pressure;Samples;Min_cycle;Max_cycle;Signal;HPM_P1;HPM_P2
2022/10/10 00:00:28;;;;;;;;;16.25;13.25;;;;;13.83;59.23;101106.59;5137692;27;45551;-78
2022/10/10 00:02:53;;;;;;;;;22.00;13.50;;;;;13.82;59.34;101095.28;5137776;27;45409;-77
2022/10/10 00:05:19;;;;;;;;;19.75;14.75;;;;;13.81;59.57;101100.56;5137157;27;63495;-78
2022/10/10 00:07:44;;;;;;;;;20.75;14.50;;;;;13.80;59.29;101099.72;5136795;27;67617;-78
2022/10/10 00:10:09;;;;;;;;;17.75;14.25;;;;;13.83;59.37;101098.72;5137282;27;47032;-78
2022/10/10 00:12:35;;;;;;;;;16.25;14.25;;;;;13.84;58.99;101093.44;5118435;27;64933;-78
2022/10/10 00:15:00;;;;;;;;;19.50;14.00;;;;;13.86;59.14;101093.41;5136763;27;68371;-78
2022/10/10 00:17:26;;;;;;;;;18.50;14.50;;;;;13.87;58.96;101090.72;5119002;27;45374;-78
2022/10/10 00:19:51;;;;;;;;;20.00;16.00;;;;;13.86;59.12;101083.78;5136863;27;60127;-77
2022/10/10 00:22:16;;;;;;;;;22.75;17.75;;;;;13.85;59.61;101089.06;5136661;27;71216;-78
2022/10/10 00:24:42;;;;;;;;;21.50;15.00;;;;;13.85;59.24;101096.91;5137294;27;45381;-78
2022/10/10 00:27:07;;;;;;;;;16.00;13.00;;;;;13.87;59.19;101093.34;5119031;27;45421;-78
2022/10/10 00:29:32;;;;;;;;;15.75;12.50;;;;;13.88;59.49;101091.56;5119129;27;45879;-78
2022/10/10 00:31:58;;;;;;;;;16.25;13.50;;;;;13.89;59.55;101090.66;5118109;27;67899;-78
2022/10/10 00:34:23;;;;;;;;;23.75;18.75;;;;;13.87;59.05;101095.97;5105470;27;46499;-78
2022/10/10 00:36:48;;;;;;;;;25.25;16.00;;;;;13.86;59.69;101093.41;5099523;27;61229;-78
2022/10/10 00:39:14;;;;;;;;;24.75;17.75;;;;;13.86;59.57;101086.38;5118871;27;73688;-77
2022/10/10 00:41:39;;;;;;;;;25.25;18.00;;;;;13.86;59.40;101088.16;5119465;27;67327;-78
2022/10/10 00:44:11;;;;;;;;;21.00;19.00;;;;;13.85;59.39;101089.06;5120542;27;45278;-78
2022/10/10 00:46:37;;;;;;;;;17.25;16.00;;;;;13.84;59.62;101079.53;5120121;27;45472;-78
2022/10/10 00:49:04;;;;;;;;;17.50;17.50;;;;;13.85;60.04;101079.44;5120132;27;46478;-78
2022/10/10 00:51:29;;;;;;;;;32.25;20.50;;;;;13.83;59.97;101072.56;5101533;27;45767;-78
2022/10/10 00:53:58;;;;;;;;;20.75;19.75;;;;;13.83;59.28;101073.41;5100677;27;66092;-78
2022/10/10 00:56:31;;;;;;;;;19.50;15.75;;;;;13.82;59.82;101070.84;5101830;27;45478;-78
2022/10/10 00:58:59;;;;;;;;;14.00;13.00;;;;;13.80;59.92;101075.28;5101390;27;46983;-78
2022/10/10 01:01:25;;;;;;;;;22.00;17.00;;;;;13.78;60.06;101079.72;5101391;27;45883;-78
2022/10/10 01:03:55;;;;;;;;;22.50;16.50;;;;;13.75;59.90;101073.69;5120138;27;45315;-78
2022/10/10 01:06:21;;;;;;;;;25.50;21.00;;;;;13.72;60.18;101072.97;5101735;27;45318;-78
2022/10/10 01:08:46;;;;;;;;;23.00;20.75;;;;;13.69;60.03;101067.84;5118804;27;56985;-78
2022/10/10 01:11:34;;;;;;;;;21.50;20.50;;;;;13.68;60.30;101080.06;5100804;27;59397;-78
2022/10/10 01:14:17;;;;;;;;;25.75;20.00;;;;;13.65;60.15;101079.31;5101325;27;45510;-78
2022/10/10 01:16:45;;;;;;;;;23.50;19.50;;;;;13.64;60.64;101078.47;5101453;27;45472;-78
2022/10/10 01:19:39;;;;;;;;;24.25;19.50;;;;;13.63;60.14;101078.53;5115576;27;46438;-78
2022/10/10 01:22:25;;;;;;;;;23.25;21.25;;;;;13.62;60.70;101082.06;5035590;28;45334;-78
2022/10/10 01:25:08;;;;;;;;;38.50;22.25;;;;;13.60;60.22;101074.25;5035930;28;45358;-78
2022/10/10 01:27:40;;;;;;;;;18.50;16.50;;;;;13.59;60.69;101077.78;5035856;28;45480;-78
2022/10/10 01:30:11;;;;;;;;;27.75;21.00;;;;;13.58;60.44;101068.25;5035832;28;45349;-78
2022/10/10 01:32:48;;;;;;;;;22.25;19.75;;;;;13.55;60.73;101078.81;5035669;28;45395;-78
2022/10/10 01:35:37;;;;;;;;;22.75;19.50;;;;;13.54;60.89;101077.13;5035839;28;45417;-78
2022/10/10 01:38:18;;;;;;;;;22.25;17.50;;;;;13.50;60.78;101070.25;5019131;28;45442;-78
2022/10/10 01:41:15;;;;;;;;;21.25;20.00;;;;;13.46;60.74;101077.34;5035537;28;46185;-78
2022/10/10 01:43:41;;;;;;;;;25.25;19.75;;;;;13.42;60.92;101072.31;5019035;28;45516;-78
2022/10/10 01:46:17;;;;;;;;;27.75;20.50;;;;;13.41;61.30;101081.03;5019063;28;45449;-78
2022/10/10 01:48:45;;;;;;;;;25.75;20.50;;;;;13.40;60.71;101074.97;5018607;28;45963;-78
2022/10/10 01:51:32;;;;;;;;;22.75;18.50;;;;;13.39;60.65;101073.28;5018459;28;46146;-78
2022/10/10 01:54:22;;;;;;;;;19.25;18.00;;;;;13.40;60.71;101074.97;5035423;28;45436;-78
2022/10/10 01:56:51;;;;;;;;;20.75;14.75;;;;;13.38;61.16;101068.94;5035574;28;45395;-78
2022/10/10 01:59:20;;;;;;;;;20.75;18.75;;;;;13.38;60.91;101074.19;5086856;27;45342;-78
2022/10/10 02:02:03;;;;;;;;;24.00;18.50;;;;;13.38;60.98;101068.09;5118754;27;47280;-78
2022/10/10 02:04:40;;;;;;;;;16.25;15.50;;;;;13.35;61.07;101063.81;5118722;27;45929;-78
2022/10/10 02:07:14;;;;;;;;;22.25;15.00;;;;;13.35;61.04;101063.81;5100614;27;45438;-78
2022/10/10 02:09:41;;;;;;;;;22.00;18.50;;;;;13.34;61.11;101068.19;5100747;27;45356;-78
2022/10/10 02:12:08;;;;;;;;;21.25;18.25;;;;;13.32;60.88;101070.00;5100404;27;45726;-78
2022/10/10 02:14:41;;;;;;;;;24.50;19.75;;;;;13.32;61.41;101058.72;5100265;27;45444;-78
2022/10/10 02:17:09;;;;;;;;;22.50;18.00;;;;;13.32;61.07;101061.31;5118980;27;45506;-78
2022/10/10 02:19:37;;;;;;;;;18.50;15.50;;;;;13.29;61.10;101057.00;5136811;27;45245;-78
2022/10/10 02:22:04;;;;;;;;;19.00;16.75;;;;;13.29;61.23;101058.78;5139250;27;47263;-78
2022/10/10 02:24:29;;;;;;;;;21.00;16.75;;;;;13.27;61.59;101065.81;5121024;27;45871;-79
2022/10/10 02:27:00;;;;;;;;;17.75;15.75;;;;;13.24;61.28;101060.69;5120942;27;45371;-78
2022/10/10 02:29:29;;;;;;;;;21.75;15.00;;;;;13.24;61.38;101055.47;5120939;27;45400;-78
2022/10/10 02:32:15;;;;;;;;;20.00;18.50;;;;;13.25;61.55;101054.56;5139334;27;45346;-78
2022/10/10 02:34:44;;;;;;;;;19.00;15.50;;;;;13.24;61.81;101055.47;5104413;27;45459;-78
2022/10/10 02:37:12;;;;;;;;;20.00;18.50;;;;;13.25;61.58;101063.25;5083002;27;45398;-78
2022/10/10 02:39:43;;;;;;;;;19.75;17.25;;;;;13.27;61.71;101060.59;5100136;27;45486;-78
2022/10/10 02:42:11;;;;;;;;;19.75;14.75;;;;;13.27;61.64;101061.44;5099858;27;47038;-78
2022/10/10 02:44:37;;;;;;;;;14.00;14.00;;;;;13.26;61.90;101057.13;5082871;27;46123;-78
2022/10/10 02:47:03;;;;;;;;;18.25;14.00;;;;;13.26;61.89;101057.13;5099123;27;66599;-78
2022/10/10 02:49:32;;;;;;;;;18.50;16.25;;;;;13.25;62.23;101058.03;5099769;27;45471;-78
2022/10/10 02:51:57;;;;;;;;;14.50;14.25;;;;;13.27;62.21;101066.66;5099799;27;45834;-78
2022/10/10 02:54:22;;;;;;;;;20.25;15.00;;;;;13.27;61.87;101064.06;5098873;27;72570;-78
2022/10/10 02:56:48;;;;;;;;;15.50;14.00;;;;;13.27;61.76;101064.06;5099976;27;45420;-78
2022/10/10 02:59:13;;;;;;;;;15.75;14.25;;;;;13.26;62.49;101064.97;5098866;27;45424;-78
2022/10/10 03:01:39;;;;;;;;;19.25;13.00;;;;;13.29;62.58;101069.22;5099479;27;45362;-78
2022/10/10 03:04:04;;;;;;;;;24.25;17.25;;;;;13.28;62.26;101057.94;5099508;27;45345;-78
2022/10/10 03:06:30;;;;;;;;;20.50;15.50;;;;;13.29;61.99;101069.22;5118132;27;45371;-78
2022/10/10 03:08:55;;;;;;;;;14.00;13.25;;;;;13.29;62.41;101061.41;5116867;27;69217;-78
2022/10/10 03:11:20;;;;;;;;;17.50;16.75;;;;;13.28;62.01;101063.16;5098425;27;71244;-78
2022/10/10 03:13:46;;;;;;;;;16.50;14.75;;;;;13.27;62.06;101071.91;5116963;27;68502;-78
2022/10/10 03:16:11;;;;;;;;;17.75;15.25;;;;;13.28;62.21;101071.00;5117096;27;63373;-78
2022/10/10 03:18:37;;;;;;;;;15.25;13.75;;;;;13.29;61.86;101058.78;5116438;27;70188;-78
2022/10/10 03:21:03;;;;;;;;;15.25;13.00;;;;;13.26;62.68;101062.38;5117585;27;47284;-78
2022/10/10 03:23:28;;;;;;;;;19.50;13.75;;;;;13.27;62.35;101066.66;5099362;27;45923;-78
2022/10/10 03:25:53;;;;;;;;;15.25;13.75;;;;;13.26;62.34;101057.13;5116773;27;70348;-78
2022/10/10 03:28:19;;;;;;;;;16.75;12.25;;;;;13.26;62.20;101057.13;5117315;27;53595;-78
2022/10/10 03:30:45;;;;;;;;;14.00;13.25;;;;;13.25;62.74;101058.03;5099129;27;45486;-78
2022/10/10 03:33:10;;;;;;;;;19.75;13.50;;;;;13.26;62.29;101058.88;5120473;27;45359;-78
2022/10/10 03:35:36;;;;;;;;;17.75;11.75;;;;;13.27;62.69;101055.38;5120054;27;45369;-78
2022/10/10 03:38:01;;;;;;;;;17.25;15.25;;;;;13.28;62.85;101060.53;5138312;27;45557;-78
2022/10/10 03:40:28;;;;;;;;;14.00;10.25;;;;;13.29;62.76;101054.41;5119592;27;46932;-78
2022/10/10 03:42:53;;;;;;;;;18.00;13.25;;;;;13.28;62.93;101051.81;5138248;27;46002;-78
2022/10/10 03:45:18;;;;;;;;;15.25;13.25;;;;;13.27;62.87;101052.75;5138482;27;45413;-78
2022/10/10 03:47:44;;;;;;;;;14.25;14.25;;;;;13.27;62.45;101058.81;5137837;27;45393;-78
2022/10/10 03:50:09;;;;;;;;;21.50;13.75;;;;;13.26;62.51;101057.13;5136834;27;72346;-78
2022/10/10 03:52:35;;;;;;;;;21.00;13.50;;;;;13.23;63.04;101051.16;5138126;27;45560;-78
2022/10/10 03:55:00;;;;;;;;;14.00;13.50;;;;;13.21;62.91;101051.22;5119578;27;45414;-78
2022/10/10 03:57:26;;;;;;;;;18.25;14.00;;;;;13.22;62.84;101052.91;5138102;27;45240;-78
2022/10/10 03:59:51;;;;;;;;;13.25;12.00;;;;;13.25;63.02;101065.03;5138028;27;45417;-78
2022/10/10 04:02:16;;;;;;;;;14.50;14.25;;;;;13.31;63.19;101067.44;5136514;27;73251;-79
2022/10/10 04:04:42;;;;;;;;;20.25;13.75;;;;;13.35;63.18;101067.31;5137367;27;60648;-79
2022/10/10 04:07:07;;;;;;;;;14.75;11.75;;;;;13.38;63.22;101052.41;5137027;27;66167;-78
2022/10/10 04:09:32;;;;;;;;;16.75;14.00;;;;;13.40;62.51;101055.81;5119236;27;46921;-78
2022/10/10 04:11:58;;;;;;;;;18.50;12.50;;;;;13.39;63.17;101054.97;5118461;27;67384;-78
2022/10/10 04:14:24;;;;;;;;;13.25;13.25;;;;;13.41;63.34;101053.16;5137882;27;45487;-79
2022/10/10 04:16:49;;;;;;;;;15.75;13.00;;;;;13.44;62.96;101047.81;5137341;27;45478;-78
2022/10/10 04:19:14;;;;;;;;;15.00;14.00;;;;;13.46;62.95;101045.97;5136560;27;70063;-78
2022/10/10 04:21:40;;;;;;;;;12.25;12.25;;;;;13.48;63.04;101041.56;5136687;27;70029;-78
2022/10/10 04:24:05;;;;;;;;;14.75;13.00;;;;;13.46;63.46;101045.97;5136793;27;69133;-78
2022/10/10 04:26:30;;;;;;;;;13.75;11.00;;;;;13.45;62.90;101049.53;5137680;27;45278;-78
2022/10/10 04:28:56;;;;;;;;;17.50;12.50;;;;;13.45;62.88;101044.28;5136401;27;74384;-78
2022/10/10 04:31:21;;;;;;;;;12.00;12.00;;;;;13.45;63.31;101046.06;5117799;27;69246;-78
2022/10/10 04:33:46;;;;;;;;;12.75;9.50;;;;;13.44;63.21;101047.81;5137591;27;45416;-78
2022/10/10 04:36:12;;;;;;;;;13.00;10.25;;;;;13.42;63.11;101049.63;5137200;27;51495;-78
2022/10/10 04:38:37;;;;;;;;;13.25;13.25;;;;;13.40;63.51;101056.66;5137395;27;46416;-78
2022/10/10 04:41:02;;;;;;;;;17.25;14.00;;;;;13.41;63.13;101060.13;5118810;27;45835;-78
2022/10/10 04:43:28;;;;;;;;;15.00;14.00;;;;;13.41;63.47;101058.38;5137395;27;45746;-78
2022/10/10 04:45:56;;;;;;;;;13.75;11.75;;;;;13.41;63.51;101058.38;5137146;27;45417;-79
2022/10/10 04:48:21;;;;;;;;;14.50;12.00;;;;;13.43;63.58;101058.31;5118694;27;47019;-78
2022/10/10 04:50:51;;;;;;;;;13.00;10.25;;;;;13.44;63.16;101065.25;5137241;27;45321;-78
2022/10/10 04:53:16;;;;;;;;;20.00;12.50;;;;;13.45;63.59;101059.97;5119030;27;45423;-78
2022/10/10 04:55:43;;;;;;;;;17.25;12.25;;;;;13.49;63.59;101065.97;5136351;27;67778;-79
2022/10/10 04:58:09;;;;;;;;;14.00;11.75;;;;;13.51;63.64;101059.75;5137125;27;47456;-78
2022/10/10 05:00:34;;;;;;;;;13.00;10.25;;;;;13.55;63.60;101057.88;5135746;27;71010;-78
2022/10/10 05:02:59;;;;;;;;;15.75;13.75;;;;;13.59;63.32;101051.63;5136383;27;66093;-78
2022/10/10 05:05:24;;;;;;;;;15.00;14.50;;;;;13.59;63.78;101046.38;5117746;27;62778;-78
2022/10/10 05:07:50;;;;;;;;;15.00;14.00;;;;;13.60;63.36;101045.50;5118060;27;59437;-78
2022/10/10 05:10:15;;;;;;;;;14.25;12.00;;;;;13.59;63.43;101048.16;5136936;27;45515;-79
2022/10/10 05:12:41;;;;;;;;;16.00;14.00;;;;;13.58;63.21;101039.47;5137102;27;45382;-78
2022/10/10 05:15:06;;;;;;;;;18.75;13.00;;;;;13.56;63.57;101043.91;5117204;27;67390;-78
2022/10/10 05:17:32;;;;;;;;;17.50;13.00;;;;;13.53;63.74;101062.31;5136659;27;46246;-78
2022/10/10 05:19:57;;;;;;;;;14.75;13.00;;;;;13.50;63.54;101044.97;5135931;27;64524;-78
2022/10/10 05:22:22;;;;;;;;;13.25;10.25;;;;;13.44;63.93;101047.81;5138102;27;45385;-78
2022/10/10 05:24:48;;;;;;;;;18.25;12.00;;;;;13.42;64.03;101060.06;5121055;27;68151;-78
2022/10/10 05:27:13;;;;;;;;;9.75;9.75;;;;;13.39;64.15;101054.09;5140241;27;45320;-78
2022/10/10 05:29:39;;;;;;;;;15.00;10.00;;;;;13.39;63.98;101048.88;5139619;27;55729;-79
2022/10/10 05:32:04;;;;;;;;;15.50;12.50;;;;;13.38;64.21;101053.25;5120747;27;66690;-78
2022/10/10 05:34:29;;;;;;;;;11.75;11.75;;;;;13.38;63.99;101047.19;5139197;27;69354;-78
2022/10/10 05:36:55;;;;;;;;;14.25;11.25;;;;;13.37;64.16;101062.00;5139254;27;74003;-78
2022/10/10 05:39:21;;;;;;;;;11.75;10.00;;;;;13.37;64.22;101048.91;5140038;27;45825;-78
2022/10/10 05:41:46;;;;;;;;;12.50;9.75;;;;;13.38;64.08;101047.19;5140238;27;45271;-78
2022/10/10 05:44:12;;;;;;;;;12.00;9.25;;;;;13.36;63.75;101045.47;5139908;27;45298;-78
2022/10/10 05:46:37;;;;;;;;;15.50;12.00;;;;;13.35;63.78;101049.00;5139793;27;53867;-78
2022/10/10 05:49:02;;;;;;;;;17.00;14.75;;;;;13.32;64.00;101041.25;5139962;27;45379;-79
2022/10/10 05:51:28;;;;;;;;;17.00;13.00;;;;;13.31;64.04;101039.53;5140099;27;45715;-78
2022/10/10 05:53:54;;;;;;;;;13.50;12.00;;;;;13.28;64.09;101036.16;5139957;27;45443;-78
2022/10/10 05:56:19;;;;;;;;;11.50;9.50;;;;;13.26;64.06;101035.34;5121474;27;46369;-79
2022/10/10 05:58:45;;;;;;;;;10.75;9.75;;;;;13.21;65.11;101030.31;5139504;27;45322;-78
2022/10/10 06:01:10;;;;;;;;;14.25;9.50;;;;;13.20;64.62;101028.56;5121483;27;45794;-79
2022/10/10 06:03:36;;;;;;;;;11.50;9.25;;;;;13.20;65.40;101035.56;5139940;27;45398;-79
2022/10/10 06:06:01;;;;;;;;;12.25;8.00;;;;;13.19;65.12;101029.50;5139198;27;59904;-79
2022/10/10 06:08:30;;;;;;;;;15.00;8.75;;;;;13.21;65.29;101029.44;5139664;27;45288;-79
2022/10/10 06:11:00;;;;;;;;;11.75;10.75;;;;;13.23;64.95;101040.69;5121289;27;45538;-79
2022/10/10 06:13:26;;;;;;;;;11.75;9.00;;;;;13.23;65.65;101046.78;5139885;27;45426;-79
2022/10/10 06:15:51;;;;;;;;;13.50;9.75;;;;;13.26;65.25;101051.03;5138742;27;70295;-79
2022/10/10 06:18:16;;;;;;;;;14.25;11.00;;;;;13.29;65.58;101059.63;5138335;27;72190;-79
2022/10/10 06:20:42;;;;;;;;;8.25;7.00;;;;;13.32;65.46;101048.25;5139423;27;45871;-80
2022/10/10 06:23:08;;;;;;;;;12.25;9.00;;;;;13.35;65.99;101061.19;5139681;27;45345;-80
2022/10/10 06:25:34;;;;;;;;;13.00;9.50;;;;;13.37;65.63;101056.75;5138986;27;46075;-79
2022/10/10 06:27:59;;;;;;;;;11.25;8.25;;;;;13.42;65.66;101060.06;5139125;27;45309;-80
2022/10/10 06:30:25;;;;;;;;;13.50;11.25;;;;;13.48;65.63;101065.09;5120911;27;45692;-79
2022/10/10 06:32:50;;;;;;;;;15.00;9.75;;;;;13.55;65.33;101069.19;5138236;27;69223;-79
2022/10/10 06:35:15;;;;;;;;;13.00;10.00;;;;;13.65;65.63;101066.22;5138317;27;45482;-79
2022/10/10 06:37:41;;;;;;;;;10.75;9.50;;;;;13.74;65.63;101072.00;5138777;27;55753;-79
2022/10/10 06:40:06;;;;;;;;;13.75;10.00;;;;;13.81;65.37;101070.00;5138113;27;64499;-79
2022/10/10 06:42:32;;;;;;;;;10.25;9.25;;;;;13.89;65.20;101081.06;5120904;27;45371;-79
2022/10/10 06:44:57;;;;;;;;;12.50;9.00;;;;;13.99;65.60;101078.09;5138368;27;66820;-79
2022/10/10 06:47:23;;;;;;;;;13.00;9.50;;;;;14.06;65.71;101077.78;5139228;27;45447;-79
2022/10/10 06:49:48;;;;;;;;;14.50;9.25;;;;;14.11;65.14;101075.00;5139042;27;45271;-79
2022/10/10 06:52:13;;;;;;;;;10.75;8.25;;;;;14.21;64.83;101081.59;5138512;27;58005;-79
2022/10/10 06:54:39;;;;;;;;;11.00;9.25;;;;;14.31;64.93;101082.94;5120155;27;45386;-79
2022/10/10 06:57:04;;;;;;;;;13.00;10.75;;;;;14.43;65.15;101089.47;5138951;27;45713;-79
2022/10/10 06:59:29;;;;;;;;;11.50;11.00;;;;;14.58;64.43;101102.88;5139077;27;45263;-79
2022/10/10 07:01:55;;;;;;;;;13.00;10.25;;;;;14.71;64.04;101101.50;5138370;27;57530;-79
2022/10/10 07:04:20;;;;;;;;;11.75;10.25;;;;;14.84;63.65;101105.31;5135747;27;75491;-78
2022/10/10 07:06:46;;;;;;;;;15.00;11.00;;;;;14.92;64.26;101112.03;5129349;27;45354;-80
2022/10/10 07:09:11;;;;;;;;;11.50;8.00;;;;;14.97;64.02;101120.53;5116559;27;69278;-79
2022/10/10 07:11:38;;;;;;;;;14.75;8.75;;;;;15.04;63.36;101119.38;5112291;27;45336;-80
2022/10/10 07:14:03;;;;;;;;;12.00;9.25;;;;;15.10;63.98;101130.47;5138433;27;46223;-79
2022/10/10 07:16:29;;;;;;;;;10.00;10.00;;;;;15.18;63.26;101127.50;5138391;27;45341;-79
2022/10/10 07:18:54;;;;;;;;;13.50;11.75;;;;;15.21;63.83;101122.16;5125195;27;45707;-80
2022/10/10 07:21:19;;;;;;;;;13.75;10.00;;;;;15.22;63.78;101128.25;5118558;27;45526;-80
2022/10/10 07:23:45;;;;;;;;;12.50;10.00;;;;;15.26;63.53;101120.16;5128247;27;51143;-80
2022/10/10 07:26:12;;;;;;;;;13.50;11.50;;;;;15.30;63.50;101126.13;5116770;27;67735;-80
2022/10/10 07:28:38;;;;;;;;;10.75;7.00;;;;;15.34;63.53;101127.72;5117592;27;45386;-80
2022/10/10 07:31:06;;;;;;;;;15.00;9.75;;;;;15.38;63.26;101136.28;5102748;27;45481;-80
2022/10/10 07:33:33;;;;;;;;;12.75;6.25;;;;;15.42;63.30;101123.00;5121953;27;46605;-80
2022/10/10 07:35:59;;;;;;;;;10.25;9.75;;;;;15.48;63.40;101121.88;5115806;27;45866;-79
2022/10/10 07:38:25;;;;;;;;;17.50;10.00;;;;;15.54;62.93;101118.13;5137481;27;57233;-80
2022/10/10 07:40:50;;;;;;;;;11.25;10.00;;;;;15.59;62.66;101113.53;5128477;27;45366;-80
2022/10/10 07:43:16;;;;;;;;;10.00;10.00;;;;;15.67;63.31;101122.78;5098662;27;47437;-81
2022/10/10 07:45:41;;;;;;;;;11.00;10.25;;;;;15.70;62.67;101127.03;5117258;27;45394;-81
2022/10/10 07:48:06;;;;;;;;;12.00;11.00;;;;;15.73;62.74;101133.91;5115105;27;66408;-81
2022/10/10 07:50:32;;;;;;;;;10.00;10.00;;;;;15.72;62.46;101140.94;5125445;27;45429;-81
2022/10/10 07:52:57;;;;;;;;;15.00;11.00;;;;;15.71;62.76;101133.97;5108925;27;70837;-80
2022/10/10 07:55:22;;;;;;;;;17.00;12.00;;;;;15.73;62.77;101139.16;5130546;27;68552;-81
2022/10/10 07:57:49;;;;;;;;;13.00;11.00;;;;;15.77;62.64;101139.00;5118874;27;56455;-81
2022/10/10 08:00:16;;;;;;;;;12.50;11.00;;;;;15.82;62.79;101142.28;5133471;27;45306;-82
2022/10/10 08:02:41;;;;;;;;;14.25;10.50;;;;;15.89;62.87;101140.22;5126768;27;46220;-81
2022/10/10 08:05:07;;;;;;;;;16.25;12.00;;;;;15.93;62.60;101139.16;5116076;27;70017;-81
2022/10/10 08:07:33;;;;;;;;;9.50;9.00;;;;;15.95;62.60;101125.97;5126590;27;45371;-81
2022/10/10 08:09:58;;;;;;;;;15.75;11.00;;;;;15.98;62.22;101138.97;5131311;27;45350;-81
2022/10/10 08:12:24;;;;;;;;;16.25;11.25;;;;;15.96;62.49;101138.19;5116070;27;45315;-80
2022/10/10 08:14:49;;;;;;;;;12.50;11.00;;;;;15.94;62.47;101147.91;5117301;27;45763;-81
2022/10/10 08:17:15;;;;;;;;;13.00;11.00;;;;;15.91;62.57;101153.28;5115807;27;55099;-81
2022/10/10 08:19:40;;;;;;;;;13.00;10.50;;;;;15.93;62.54;101157.53;5115511;27;45416;-82
2022/10/10 08:22:06;;;;;;;;;12.75;11.00;;;;;15.96;62.73;101161.81;5096483;27;69017;-80
2022/10/10 08:24:31;;;;;;;;;16.00;11.25;;;;;15.99;62.80;101154.66;5116025;27;45342;-80
2022/10/10 08:26:57;;;;;;;;;15.00;12.75;;;;;16.04;62.86;101164.94;5116124;27;45409;-80
2022/10/10 08:29:23;;;;;;;;;16.75;12.50;;;;;16.10;62.51;101163.81;5115151;27;65544;-80
2022/10/10 08:31:48;;;;;;;;;12.00;9.75;;;;;16.12;62.44;101169.84;5116023;27;46983;-79
2022/10/10 08:34:13;;;;;;;;;9.75;9.75;;;;;16.13;62.58;101176.81;5126220;27;72483;-80
2022/10/10 08:36:38;;;;;;;;;9.25;7.25;;;;;16.11;62.55;101176.03;5135608;27;68295;-80
2022/10/10 08:39:04;;;;;;;;;11.75;11.00;;;;;16.11;62.59;101179.50;5135986;27;52596;-80
2022/10/10 08:41:46;;;;;;;;;10.50;9.00;;;;;16.06;62.37;101192.84;5136490;27;46232;-80
2022/10/10 08:44:23;;;;;;;;;13.50;9.50;;;;;16.00;62.97;101194.88;5136618;27;45884;-80
2022/10/10 08:46:57;;;;;;;;;13.00;9.50;;;;;15.96;63.32;101188.06;5118146;27;45294;-80
2022/10/10 08:49:29;;;;;;;;;13.25;10.00;;;;;15.94;63.32;101188.13;5136177;27;45426;-79
2022/10/10 08:52:00;;;;;;;;;13.75;11.25;;;;;15.96;63.90;101193.31;5117752;27;45352;-80
2022/10/10 08:54:27;;;;;;;;;10.25;9.50;;;;;16.02;63.71;101196.50;5117789;27;45803;-79
2022/10/10 08:56:56;;;;;;;;;10.00;10.00;;;;;16.12;63.65;101186.47;5118550;27;45411;-80
2022/10/10 08:59:25;;;;;;;;;10.75;7.50;;;;;16.25;64.03;101195.50;5104174;27;45440;-79
2022/10/10 09:01:57;;;;;;;;;9.75;8.75;;;;;16.33;63.83;101189.88;5121898;27;46204;-80
2022/10/10 09:04:22;;;;;;;;;10.00;6.25;;;;;16.42;63.84;101201.75;5121815;27;45460;-79
2022/10/10 09:07:19;;;;;;;;;8.50;7.00;;;;;16.51;64.09;101196.09;5140384;27;45384;-79
2022/10/10 09:10:22;;;;;;;;;9.50;7.50;;;;;16.68;63.74;101197.03;5121741;27;45363;-79
2022/10/10 09:12:57;;;;;;;;;11.00;6.00;;;;;16.82;63.10;101199.88;5121941;27;45936;-79
2022/10/10 09:15:30;;;;;;;;;11.75;8.25;;;;;16.91;63.27;101203.88;5140489;27;45284;-79
2022/10/10 09:18:11;;;;;;;;;9.25;6.00;;;;;16.95;62.56;101201.03;5121700;27;45430;-78
2022/10/10 09:20:58;;;;;;;;;10.25;9.75;;;;;17.05;62.79;101209.34;5139862;27;45311;-79
2022/10/10 09:23:34;;;;;;;;;11.75;9.50;;;;;17.17;62.66;101213.97;5140244;27;46965;-79
2022/10/10 09:26:03;;;;;;;;;7.00;6.75;;;;;17.28;62.40;101208.19;5140412;27;45348;-79
2022/10/10 09:28:34;;;;;;;;;11.00;8.00;;;;;17.48;62.09;101212.47;5121702;27;45454;-79
2022/10/10 09:31:01;;;;;;;;;10.50;9.00;;;;;17.65;62.19;101205.50;5140057;27;45441;-80
2022/10/10 09:33:34;;;;;;;;;6.75;6.25;;;;;17.79;61.44;101211.75;5139973;27;46073;-79
2022/10/10 09:36:02;;;;;;;;;8.75;6.50;;;;;17.93;60.74;101221.59;5121137;27;45470;-80
2022/10/10 09:38:34;;;;;;;;;6.25;6.00;;;;;18.10;61.08;101225.97;5121374;27;45391;-80
2022/10/10 09:41:34;;;;;;;;;12.00;8.00;;;;;18.30;59.97;101239.91;5121518;27;45382;-80
2022/10/10 09:44:03;;;;;;;;;9.00;8.00;;;;;18.40;59.49;101246.34;5116297;27;46413;-80
2022/10/10 09:46:29;;;;;;;;;0.00;0.00;;;;;18.42;59.37;101241.00;5121632;27;45324;-80
2022/10/10 09:48:56;;;;;;;;;9.75;7.50;;;;;18.45;59.63;101243.50;5138885;27;52339;-80
2022/10/10 09:51:21;;;;;;;;;14.00;8.00;;;;;18.51;59.38;101248.44;5120353;27;69527;-80
2022/10/10 09:53:48;;;;;;;;;7.25;7.00;;;;;18.47;59.25;101255.66;5159129;27;68899;-80
2022/10/10 09:56:43;;;;;;;;;8.75;7.00;;;;;18.44;59.27;101254.97;5160763;27;45469;-80
2022/10/10 09:59:54;;;;;;;;;7.25;6.00;;;;;18.34;59.61;101257.25;5152171;27;45421;-80
2022/10/10 10:02:25;;;;;;;;;6.25;6.25;;;;;18.27;60.09;101253.22;5135601;27;45425;-79
2022/10/10 10:04:51;;;;;;;;;13.50;8.00;;;;;18.29;60.23;101254.00;5139216;27;45549;-80
2022/10/10 10:07:28;;;;;;;;;12.75;9.00;;;;;18.29;60.14;101262.75;5121022;27;45308;-80
2022/10/10 10:09:57;;;;;;;;;10.50;8.00;;;;;18.31;59.97;101267.94;5139294;27;45406;-82
2022/10/10 10:12:25;;;;;;;;;8.50;8.25;;;;;18.34;60.07;101271.25;5120887;27;45425;-82
2022/10/10 10:14:51;;;;;;;;;8.25;7.75;;;;;18.46;59.75;101274.16;5120655;27;47968;-81
2022/10/10 10:17:20;;;;;;;;;11.25;9.00;;;;;18.55;59.44;101276.31;5119579;27;45817;-80
2022/10/10 10:19:46;;;;;;;;;8.75;7.75;;;;;18.58;59.15;101279.63;5098822;27;45384;-81
2022/10/10 10:22:32;;;;;;;;;10.75;8.00;;;;;18.56;59.60;101286.78;5099657;27;45343;-81
2022/10/10 10:24:59;;;;;;;;;14.00;9.00;;;;;18.58;58.95;101284.91;5099281;27;46640;-82
2022/10/10 10:27:26;;;;;;;;;8.00;7.00;;;;;18.64;59.52;101280.25;5117571;27;45787;-82
2022/10/10 10:29:54;;;;;;;;;9.75;7.00;;;;;18.74;59.49;101279.66;5099455;27;45421;-81
2022/10/10 10:33:08;;;;;;;;;9.00;7.75;;;;;18.87;59.19;101279.00;5099076;27;45785;-81
2022/10/10 10:35:43;;;;;;;;;14.00;7.75;;;;;18.97;58.90;101280.22;5103877;27;45368;-81
2022/10/10 10:38:11;;;;;;;;;11.25;8.00;;;;;19.08;58.94;101288.38;5099225;27;45329;-82
2022/10/10 10:40:41;;;;;;;;;9.50;8.00;;;;;19.15;58.54;101292.38;5129138;27;45331;-81
2022/10/10 10:43:26;;;;;;;;;10.00;6.75;;;;;19.21;58.00;101291.19;5116631;27;45422;-83
2022/10/10 10:46:24;;;;;;;;;10.00;8.00;;;;;19.19;58.24;101308.06;5102493;27;46420;-80
2022/10/10 10:49:08;;;;;;;;;8.00;8.00;;;;;19.14;58.22;101305.66;5105305;27;45285;-81
2022/10/10 10:51:45;;;;;;;;;9.75;7.00;;;;;19.15;58.05;101310.00;5109357;27;45406;-81
2022/10/10 10:54:11;;;;;;;;;6.50;6.50;;;;;19.13;57.76;101315.38;5121607;27;45379;-81
2022/10/10 10:56:46;;;;;;;;;7.67;7.00;;;;;19.13;58.45;101319.81;5119254;27;47011;-82
2022/10/10 10:59:32;;;;;;;;;9.50;7.00;;;;;19.18;58.24;101327.44;5114114;27;45807;-81
2022/10/10 11:02:06;;;;;;;;;9.75;7.00;;;;;19.15;58.11;101324.06;5118337;27;45415;-82
2022/10/10 11:04:32;;;;;;;;;11.50;8.75;;;;;19.23;58.11;101336.81;5118720;27;45372;-82
2022/10/10 11:07:22;;;;;;;;;15.25;8.75;;;;;19.33;58.09;101335.38;5124096;27;45342;-81
2022/10/10 11:10:15;;;;;;;;;12.75;8.50;;;;;19.52;57.67;101343.09;5104387;27;45860;-81
2022/10/10 11:12:46;;;;;;;;;7.25;7.00;;;;;19.70;57.32;101345.59;5127456;27;45492;-81
2022/10/10 11:15:16;;;;;;;;;11.50;10.25;;;;;19.80;56.84;101343.31;5125804;27;45540;-79
2022/10/10 11:17:51;;;;;;;;;12.00;9.50;;;;;19.90;56.83;101347.13;5108719;27;46566;-81
2022/10/10 11:20:35;;;;;;;;;8.75;8.25;;;;;20.00;56.30;101344.78;5098555;27;45509;-82